Time;durP1;ratioP1;P1;durP2;ratioP2;P2;SDS_P1;SDS_P2;PMS_P1;PMS_P2;Temp;Humidity;BMP_temperature;BMP_pressure;BME280_temperature;BME280_humidity;BME280_pressure;Samples;Min_cycle;Max_cycle;Signal;HPM_P1;HPM_P2
2022/01/19 00:01:35;;;;;;;10.70;3.92;;;;;;;4.10;82.10;101887.06;4920612;29;20067;-73
2022/01/19 00:04:01;;;;;;;8.48;2.90;;;;;;;4.09;81.69;101880.91;4920583;29;20048;-73
2022/01/19 00:06:27;;;;;;;8.48;3.25;;;;;;;4.06;81.79;101885.63;4920449;29;20043;-72
2022/01/19 00:08:52;;;;;;;9.35;3.45;;;;;;;3.80;82.55;101891.28;4920202;29;20406;-72
2022/01/19 00:11:18;;;;;;;8.25;3.25;;;;;;;3.79;82.68;101892.25;4920578;29;20032;-73
2022/01/19 00:13:43;;;;;;;8.43;2.80;;;;;;;3.76;83.24;101895.16;4920046;29;20066;-73
2022/01/19 00:16:09;;;;;;;9.10;3.37;;;;;;;3.64;83.22;101892.66;4920368;29;20032;-72
2022/01/19 00:18:35;;;;;;;10.35;3.50;;;;;;;3.57;83.84;101894.97;4919999;29;20261;-73
2022/01/19 00:21:00;;;;;;;9.32;3.45;;;;;;;3.54;84.51;101889.91;4920513;29;20036;-73
2022/01/19 00:23:26;;;;;;;9.10;3.97;;;;;;;3.40;84.32;101879.50;4920413;29;20032;-73
2022/01/19 00:25:54;;;;;;;11.00;3.90;;;;;;;3.35;84.82;101863.88;4919894;29;20040;-72
2022/01/19 00:28:19;;;;;;;8.40;2.85;;;;;;;3.25;85.47;101840.75;4918797;29;20455;-72
2022/01/19 00:30:45;;;;;;;8.27;3.78;;;;;;;3.16;85.46;101829.03;4918897;29;20036;-71
2022/01/19 00:33:13;;;;;;;9.63;3.50;;;;;;;3.06;86.00;101810.25;4919997;29;20048;-72
2022/01/19 00:35:39;;;;;;;14.23;3.25;;;;;;;3.03;86.49;101796.38;4919975;29;20032;-72
2022/01/19 00:38:06;;;;;;;9.15;3.70;;;;;;;3.01;86.20;101791.16;4919744;29;20059;-72
2022/01/19 00:40:32;;;;;;;11.32;4.25;;;;;;;3.03;86.03;101785.72;4919912;29;20111;-72
2022/01/19 00:42:57;;;;;;;7.07;3.17;;;;;;;3.02;86.19;101790.19;4918547;29;20115;-72
2022/01/19 00:45:23;;;;;;;12.15;4.35;;;;;;;3.03;86.34;101783.91;4919558;29;20268;-72
2022/01/19 00:47:49;;;;;;;13.82;4.43;;;;;;;3.02;86.21;101789.34;4919801;29;20047;-72
2022/01/19 00:50:20;;;;;;;9.02;3.78;;;;;;;2.95;86.76;101777.47;4919445;29;20559;-74
2022/01/19 00:52:45;;;;;;;10.43;3.88;;;;;;;2.87;86.95;101782.56;4920044;29;20036;-73
2022/01/19 00:55:12;;;;;;;12.32;3.63;;;;;;;2.87;86.50;101779.91;4919685;29;20035;-73
2022/01/19 00:57:38;;;;;;;10.32;3.33;;;;;;;2.94;86.96;101768.66;4919375;29;20048;-73
2022/01/19 01:00:06;;;;;;;10.90;4.07;;;;;;;3.01;85.90;101764.53;4919917;29;20036;-72
2022/01/19 01:02:31;;;;;;;11.23;3.50;;;;;;;2.87;86.47;101763.91;4919223;29;20511;-73
2022/01/19 01:04:57;;;;;;;10.75;3.20;;;;;;;2.93;86.01;101764.28;4919137;29;20111;-73
2022/01/19 01:07:22;;;;;;;8.95;3.40;;;;;;;3.03;85.29;101769.75;4919252;29;20140;-73
2022/01/19 01:09:48;;;;;;;7.20;3.17;;;;;;;2.96;85.91;101760.53;4919242;29;20063;-73
2022/01/19 01:12:20;;;;;;;6.53;2.75;;;;;;;3.02;85.46;101766.22;4919301;29;20039;-73
2022/01/19 01:20:16;;;;;;;7.68;3.42;;;;;;;2.92;85.28;101753.75;4919066;29;20135;-73
2022/01/19 01:22:42;;;;;;;8.02;3.38;;;;;;;2.95;85.65;101757.03;4919035;29;20112;-73
2022/01/19 01:25:09;;;;;;;8.82;3.47;;;;;;;2.94;85.22;101765.13;4919037;29;20036;-73
2022/01/19 01:27:34;;;;;;;;;;;;;;;2.86;85.62;101768.44;4919548;29;20111;-74
2022/01/19 01:29:59;;;;;;;6.32;2.47;;;;;;;2.88;85.17;101769.13;4919169;29;19946;-73
2022/01/19 01:32:25;;;;;;;8.43;2.95;;;;;;;2.92;85.04;101762.59;4919057;29;20036;-73
2022/01/19 01:34:52;;;;;;;11.38;3.60;;;;;;;2.81;85.60;101751.13;4917787;29;20036;-73
2022/01/19 01:37:18;;;;;;;7.78;2.58;;;;;;;2.81;85.60;101736.00;4918881;29;20044;-73
2022/01/19 01:39:43;;;;;;;9.25;3.25;;;;;;;2.80;86.11;101718.34;4918925;29;20028;-73
2022/01/19 01:42:14;;;;;;;9.27;3.58;;;;;;;2.76;86.54;101708.91;4918458;29;20468;-73
2022/01/19 01:44:43;;;;;;;6.50;2.45;;;;;;;2.77;86.31;101700.78;4918726;29;20036;-73
2022/01/19 01:47:09;;;;;;;8.73;3.17;;;;;;;2.78;85.60;101715.78;4918699;29;20036;-73
2022/01/19 01:55:10;;;;;;;10.77;3.55;;;;;;;2.86;84.69;101720.50;4918415;29;20039;-73
2022/01/19 01:57:35;;;;;;;7.30;3.38;;;;;;;2.87;84.76;101714.19;4918896;29;20052;-73
2022/01/19 02:00:01;;;;;;;7.68;3.13;;;;;;;2.81;84.19;101728.00;4918550;29;20420;-73
2022/01/19 02:02:27;;;;;;;;;;;;;;;2.91;83.97;101738.75;4918788;29;20467;-73
2022/01/19 02:04:52;;;;;;;8.38;3.60;;;;;;;2.93;83.81;101731.50;4917122;29;19970;-73
2022/01/19 02:09:55;;;;;;;7.95;3.00;;;;;;;2.76;84.23;101733.69;4917774;29;20091;-73
2022/01/19 02:26:06;;;;;;;9.18;3.22;;;;;;;2.72;84.98;101694.97;4918304;29;20135;-73
2022/01/19 02:36:38;;;;;;;6.22;2.65;;;;;;;3.12;83.52;101673.97;4917825;29;20129;-73
2022/01/19 02:41:50;;;;;;;5.53;2.47;;;;;;;3.09;83.10;101676.88;4917699;29;20041;-73
2022/01/19 02:44:29;;;;;;;8.95;2.70;;;;;;;3.05;83.41;101664.78;4917716;29;20031;-74
2022/01/19 02:49:14;;;;;;;6.63;2.85;;;;;;;3.08;82.68;101669.84;4917769;29;20047;-74
2022/01/19 02:49:48;;;;;;;6.43;2.50;;;;;;;2.90;83.56;101647.41;4917323;29;20040;-74
2022/01/19 02:52:14;;;;;;;5.60;2.55;;;;;;;2.90;83.39;101635.91;4917517;29;20027;-74
2022/01/19 02:54:40;;;;;;;6.72;2.35;;;;;;;2.93;83.20;101635.66;4917624;29;20493;-73
2022/01/19 02:57:09;;;;;;;;;;;;;;;2.87;83.67;101639.66;4916422;29;20052;-74
2022/01/19 03:10:11;;;;;;;6.45;2.65;;;;;;;2.59;84.59;101603.81;4917036;29;20031;-73
2022/01/19 03:12:37;;;;;;;8.60;2.80;;;;;;;2.61;84.37;101593.03;4917186;29;20031;-73
2022/01/19 03:15:03;;;;;;;5.63;2.50;;;;;;;2.72;83.54;101587.69;4917222;29;20039;-73
2022/01/19 03:17:29;;;;;;;9.82;3.72;;;;;;;2.76;83.83;101574.00;4915894;29;20118;-73
2022/01/19 03:19:54;;;;;;;6.13;3.03;;;;;;;2.74;83.74;101573.28;4916836;29;20459;-73
2022/01/19 03:22:25;;;;;;;7.68;3.00;;;;;;;2.66;84.32;101582.88;4915995;29;20044;-73
2022/01/19 03:24:52;;;;;;;7.20;3.13;;;;;;;2.72;84.23;101575.22;4917148;29;20035;-73
2022/01/19 03:27:18;;;;;;;7.80;3.13;;;;;;;2.79;84.06;101575.56;4917022;29;20032;-73
2022/01/19 03:29:45;;;;;;;7.10;3.20;;;;;;;2.69;83.72;101561.31;4916815;29;20034;-73
2022/01/19 03:32:10;;;;;;;6.15;3.22;;;;;;;2.75;83.94;101552.84;4917057;29;20040;-74
2022/01/19 03:34:37;;;;;;;5.80;3.00;;;;;;;2.77;83.98;101537.59;4916765;29;20039;-73
2022/01/19 03:37:03;;;;;;;;;;;;;;;2.73;83.88;101528.16;4917392;29;20116;-73
2022/01/19 03:39:29;;;;;;;7.07;3.15;;;;;;;2.73;83.87;101522.84;4915816;29;20377;-73
2022/01/19 03:41:54;;;;;;;8.73;2.30;;;;;;;2.81;83.49;101531.03;4916917;29;20024;-74
2022/01/19 03:44:20;;;;;;;6.57;2.85;;;;;;;2.84;83.32;101522.81;4916716;29;20427;-72
2022/01/19 03:46:57;;;;;;;7.15;3.28;;;;;;;2.87;83.23;101527.00;4915665;29;20037;-72
2022/01/19 03:49:24;;;;;;;7.80;3.58;;;;;;;2.89;83.42;101523.25;4916701;29;20071;-72
2022/01/19 03:51:58;;;;;;;6.75;3.08;;;;;;;2.89;83.40;101525.91;4916972;29;20095;-73
2022/01/19 03:54:43;;;;;;;6.80;3.33;;;;;;;3.04;83.19;101529.13;4916876;29;20498;-73
2022/01/19 03:57:09;;;;;;;4.60;2.90;;;;;;;3.10;82.52;101524.09;4916604;29;20107;-73
2022/01/19 03:59:34;;;;;;;5.15;2.78;;;;;;;3.13;82.13;101517.69;4917103;29;20387;-73
2022/01/19 04:02:02;;;;;;;7.90;3.60;;;;;;;3.13;82.27;101515.03;4915847;29;20043;-73
2022/01/19 04:07:08;;;;;;;5.93;3.08;;;;;;;3.18;82.16;101498.66;4916930;29;20072;-73
2022/01/19 04:09:39;;;;;;;7.38;3.38;;;;;;;3.14;82.49;101493.59;4916577;29;20103;-74
2022/01/19 04:12:07;;;;;;;5.88;3.22;;;;;;;3.21;81.97;101493.06;4916443;29;20044;-73
2022/01/19 04:14:33;;;;;;;6.53;3.25;;;;;;;3.07;82.95;101499.56;4916731;29;20042;-74
2022/01/19 04:17:01;;;;;;;6.25;3.25;;;;;;;3.23;82.41;101499.09;4916930;29;20060;-74
2022/01/19 04:19:31;;;;;;;8.52;2.85;;;;;;;3.07;82.52;101492.41;4915125;29;20035;-74
2022/01/19 04:21:59;;;;;;;6.97;2.88;;;;;;;3.05;82.89;101494.34;4916305;29;20032;-73
2022/01/19 04:24:25;;;;;;;7.35;3.03;;;;;;;3.11;82.37;101498.31;4916598;29;20031;-74
2022/01/19 04:29:35;;;;;;;6.47;3.28;;;;;;;3.21;82.34;101483.28;4916257;29;19933;-74
2022/01/19 04:32:09;;;;;;;6.95;3.65;;;;;;;3.10;82.82;101485.97;4916356;29;20463;-74
2022/01/19 04:34:36;;;;;;;9.02;3.42;;;;;;;3.13;82.46;101478.59;4920066;29;20040;-74
2022/01/19 04:45:54;;;;;;;6.85;3.63;;;;;;;3.10;82.33;101470.84;4919621;29;20063;-74
2022/01/19 05:04:11;;;;;;;6.35;2.90;;;;;;;3.11;82.44;101453.06;4919610;29;20040;-74
2022/01/19 05:06:41;;;;;;;4.82;2.40;;;;;;;3.14;82.49;101447.47;4919457;29;20039;-74
2022/01/19 05:09:21;;;;;;;6.28;2.75;;;;;;;3.16;82.47;101439.34;4919114;29;20031;-74
2022/01/19 05:14:31;;;;;;;7.85;3.20;;;;;;;3.14;82.71;101424.34;4919221;29;20032;-74
2022/01/19 05:16:56;;;;;;;7.03;3.25;;;;;;;3.14;82.37;101420.84;4917551;29;20398;-74
2022/01/19 05:19:21;;;;;;;5.90;2.60;;;;;;;3.13;82.76;101409.34;4919035;29;20404;-75
2022/01/19 05:21:47;;;;;;;7.63;3.87;;;;;;;3.20;82.27;101412.34;4918899;29;20284;-74
2022/01/19 05:24:12;;;;;;;8.17;3.20;;;;;;;3.12;82.48;101405.00;4918956;29;20028;-75
2022/01/19 05:26:38;;;;;;;7.25;3.20;;;;;;;3.12;82.80;101401.50;4917776;29;20732;-74
2022/01/19 05:29:03;;;;;;;9.27;3.78;;;;;;;3.13;82.62;101397.84;4918676;29;20033;-76
2022/01/19 05:31:29;;;;;;;8.02;3.50;;;;;;;3.13;82.91;101395.19;4918848;29;20032;-75
2022/01/19 05:33:54;;;;;;;7.18;3.83;;;;;;;3.13;82.81;101384.53;4919049;29;20143;-74
2022/01/19 05:36:19;;;;;;;8.65;3.90;;;;;;;3.12;82.81;101385.50;4918978;29;20554;-75
2022/01/19 05:38:45;;;;;;;7.28;3.50;;;;;;;3.11;82.95;101382.00;4918937;29;20036;-75
2022/01/19 05:41:10;;;;;;;7.85;3.80;;;;;;;3.14;82.92;101384.41;4918558;29;20459;-75
2022/01/19 05:43:36;;;;;;;8.57;3.42;;;;;;;3.13;82.85;101379.22;4917890;29;20118;-75
2022/01/19 05:46:01;;;;;;;9.57;4.00;;;;;;;3.16;82.62;101372.78;4918047;29;20464;-75
2022/01/19 05:48:26;;;;;;;8.50;3.45;;;;;;;3.16;82.77;101375.44;4919736;29;20109;-78
2022/01/19 05:50:52;;;;;;;9.77;3.60;;;;;;;3.24;82.36;101362.28;4919089;29;20036;-79
2022/01/19 05:53:17;;;;;;;9.45;3.72;;;;;;;3.19;82.52;101364.53;4918879;29;20256;-77
2022/01/19 05:55:45;;;;;;;7.32;3.88;;;;;;;3.16;82.71;101360.31;4918320;29;20491;-78
2022/01/19 05:58:11;;;;;;;8.07;3.50;;;;;;;3.18;82.72;101354.84;4918701;29;20063;-77
2022/01/19 06:00:37;;;;;;;;;;;;;;;3.20;82.88;101358.22;4919111;29;20078;-78
2022/01/19 06:03:04;;;;;;;9.15;4.00;;;;;;;3.17;82.72;101359.34;4918312;29;19915;-77
2022/01/19 06:05:30;;;;;;;8.68;4.05;;;;;;;3.21;82.50;101349.25;4918637;29;20028;-78
2022/01/19 06:08:11;;;;;;;7.93;3.95;;;;;;;3.23;82.30;101342.78;4918391;29;20387;-78
2022/01/19 06:10:43;;;;;;;7.82;4.07;;;;;;;3.24;82.02;101343.63;4917758;29;20191;-77
2022/01/19 06:13:09;;;;;;;7.55;3.95;;;;;;;3.20;82.09;101332.44;4918182;29;20031;-78
2022/01/19 06:15:34;;;;;;;;;;;;;;;3.21;82.29;101328.81;4918924;29;20036;-79
2022/01/19 06:18:00;;;;;;;6.15;3.22;;;;;;;3.23;82.07;101340.13;4918365;29;19917;-77
2022/01/19 06:20:25;;;;;;;6.88;3.55;;;;;;;3.25;81.46;101332.84;4917829;29;20083;-78
2022/01/19 06:22:51;;;;;;;8.68;3.47;;;;;;;3.23;81.34;101325.97;4918748;29;20039;-77
2022/01/19 06:25:16;;;;;;;6.38;3.15;;;;;;;3.25;81.20;101321.34;4916752;29;20387;-77
2022/01/19 06:27:42;;;;;;;6.47;3.20;;;;;;;3.34;81.10;101317.88;4918150;29;20442;-78
2022/01/19 06:30:08;;;;;;;6.32;2.97;;;;;;;3.36;80.94;101321.25;4918255;29;20540;-77
2022/01/19 06:32:33;;;;;;;8.43;3.60;;;;;;;3.33;81.02;101333.03;4918024;29;20052;-77
2022/01/19 06:34:58;;;;;;;12.20;5.03;;;;;;;3.31;81.08;101345.63;4916428;29;20059;-77
2022/01/19 06:37:24;;;;;;;9.10;3.83;;;;;;;3.34;81.22;101344.53;4917707;29;20686;-77
2022/01/19 06:39:50;;;;;;;8.05;4.03;;;;;;;3.34;81.44;101341.88;4917423;29;20031;-76
2022/01/19 06:42:15;;;;;;;6.72;3.15;;;;;;;3.32;81.04;101346.47;4917322;29;20183;-77
2022/01/19 06:44:41;;;;;;;6.43;3.63;;;;;;;3.26;81.20;101345.19;4917576;29;20036;-76
2022/01/19 06:47:06;;;;;;;6.50;3.63;;;;;;;3.26;80.66;101345.19;4917533;29;20332;-76
2022/01/19 06:49:31;;;;;;;8.40;3.85;;;;;;;3.23;81.12;101347.28;4917822;29;20127;-76
2022/01/19 06:51:57;;;;;;;8.43;4.07;;;;;;;3.24;81.30;101347.16;4916835;29;20036;-76
2022/01/19 06:54:22;;;;;;;9.13;3.83;;;;;;;3.24;81.52;101343.63;4917326;29;20782;-76
2022/01/19 06:56:48;;;;;;;8.80;3.67;;;;;;;3.26;81.54;101344.34;4916400;29;20055;-77
2022/01/19 06:59:13;;;;;;;8.43;3.97;;;;;;;3.24;80.96;101340.97;4917235;29;20036;-77
2022/01/19 07:01:38;;;;;;;7.78;3.70;;;;;;;3.26;81.03;101347.84;4917140;29;20043;-77
2022/01/19 07:04:05;;;;;;;10.13;4.10;;;;;;;3.27;80.69;101349.53;4916994;29;20032;-77
2022/01/19 07:06:30;;;;;;;8.10;3.45;;;;;;;3.28;80.99;101337.06;4917067;29;20280;-77
2022/01/19 07:08:56;;;;;;;8.32;3.35;;;;;;;3.26;81.00;101331.88;4916129;29;20035;-77
2022/01/19 07:11:21;;;;;;;9.52;4.18;;;;;;;3.27;80.57;101335.38;4917462;29;20028;-77
2022/01/19 07:13:48;;;;;;;6.97;3.90;;;;;;;3.27;80.48;101340.72;4917790;29;20123;-77
2022/01/19 07:16:15;;;;;;;6.70;3.45;;;;;;;3.26;80.69;101331.03;4917172;29;20395;-76
2022/01/19 07:18:40;;;;;;;7.97;4.15;;;;;;;3.30;81.04;101322.66;4916106;29;20068;-76
2022/01/19 07:21:06;;;;;;;7.73;3.10;;;;;;;3.28;81.58;101327.25;4917584;29;20438;-76
2022/01/19 07:23:31;;;;;;;12.27;4.77;;;;;;;3.19;82.13;101322.75;4918906;29;20284;-77
2022/01/19 07:25:56;;;;;;;12.37;4.97;;;;;;;3.37;83.19;101317.63;4917435;29;20275;-78
2022/01/19 07:28:22;;;;;;;14.43;4.68;;;;;;;3.18;82.21;101317.56;4917649;29;20107;-77
2022/01/19 07:30:48;;;;;;;9.30;4.30;;;;;;;3.12;83.31;101314.47;4919461;29;20119;-78
2022/01/19 07:33:14;;;;;;;11.40;4.00;;;;;;;3.19;83.19;101297.94;4920366;29;20048;-79
2022/01/19 07:35:39;;;;;;;11.88;4.80;;;;;;;3.14;82.95;101301.00;4919336;29;20040;-78
2022/01/19 07:38:04;;;;;;;11.23;5.03;;;;;;;2.99;82.77;101291.72;4919361;29;20024;-78
2022/01/19 07:40:30;;;;;;;11.52;4.40;;;;;;;2.84;82.88;101283.25;4918924;29;20531;-78
2022/01/19 07:42:55;;;;;;;12.23;4.30;;;;;;;2.84;84.15;101277.09;4919617;29;20032;-78
2022/01/19 07:45:21;;;;;;;12.63;5.38;;;;;;;2.81;83.05;101283.53;4919447;29;20072;-78
2022/01/19 07:47:46;;;;;;;12.73;4.07;;;;;;;2.72;83.12;101277.16;4919953;29;20039;-79
2022/01/19 07:50:12;;;;;;;16.23;4.90;;;;;;;2.71;83.55;101275.47;4919955;29;20032;-78
2022/01/19 07:52:38;;;;;;;9.57;4.35;;;;;;;2.75;84.01;101276.91;4919804;29;20107;-79
2022/01/19 07:55:04;;;;;;;13.35;4.82;;;;;;;2.74;83.71;101275.22;4919454;29;20383;-79
2022/01/19 07:57:29;;;;;;;12.90;5.10;;;;;;;2.82;83.54;101269.25;4920120;29;20116;-78
2022/01/19 07:59:54;;;;;;;12.20;5.10;;;;;;;2.79;83.26;101270.34;4917915;29;20040;-78
2022/01/19 08:02:20;;;;;;;12.18;4.47;;;;;;;2.74;83.33;101269.91;4920290;29;20376;-78
2022/01/19 08:04:45;;;;;;;10.00;4.57;;;;;;;2.71;83.38;101261.34;4919736;29;20119;-78
2022/01/19 08:07:11;;;;;;;10.82;5.15;;;;;;;2.69;83.32;101257.97;4919306;29;20498;-78
2022/01/19 08:09:36;;;;;;;13.48;4.80;;;;;;;2.70;83.31;101247.19;4921462;29;20036;-78
2022/01/19 08:12:03;;;;;;;14.02;5.78;;;;;;;2.68;83.38;101246.50;4922192;29;20190;-77
2022/01/19 08:14:29;;;;;;;11.23;4.53;;;;;;;2.69;83.64;101249.97;4920725;29;20036;-77
2022/01/19 08:16:56;;;;;;;9.70;4.50;;;;;;;2.72;83.45;101255.03;4921867;29;20032;-78
2022/01/19 08:19:21;;;;;;;11.13;4.63;;;;;;;2.69;83.31;101260.63;4921584;29;20485;-76
2022/01/19 08:21:47;;;;;;;10.77;4.57;;;;;;;2.70;83.70;101264.97;4921783;29;20028;-78
2022/01/19 08:24:13;;;;;;;10.20;4.78;;;;;;;2.71;83.79;101262.19;4921525;29;20395;-78
2022/01/19 08:26:39;;;;;;;9.32;4.45;;;;;;;2.81;83.06;101267.56;4921847;29;20032;-78
2022/01/19 08:29:05;;;;;;;12.05;5.47;;;;;;;2.91;82.78;101260.44;4920320;29;20039;-78
2022/01/19 08:31:31;;;;;;;10.90;5.10;;;;;;;2.86;82.33;101264.50;4920911;29;20032;-78
2022/01/19 08:33:57;;;;;;;14.68;5.72;;;;;;;2.84;82.31;101272.63;4920284;29;20043;-77
2022/01/19 08:36:23;;;;;;;10.60;4.95;;;;;;;2.86;82.36;101265.34;4922358;29;20044;-78
2022/01/19 08:38:49;;;;;;;12.07;5.53;;;;;;;2.81;82.86;101261.38;4920697;29;20407;-78
2022/01/19 08:41:14;;;;;;;15.18;5.05;;;;;;;2.83;82.46;101262.09;4919983;29;20066;-78
2022/01/19 08:43:39;;;;;;;15.27;6.10;;;;;;;2.78;82.42;101268.66;4921781;29;20044;-77
2022/01/19 08:46:05;;;;;;;14.15;6.43;;;;;;;2.82;82.34;101274.56;4921372;29;20360;-77
2022/01/19 08:48:31;;;;;;;15.88;6.47;;;;;;;2.87;82.75;101274.97;4921381;29;20037;-77
2022/01/19 08:50:56;;;;;;;16.20;6.03;;;;;;;2.88;82.11;101270.50;4919981;29;20063;-78
2022/01/19 08:53:22;;;;;;;13.43;5.43;;;;;;;2.91;81.62;101268.41;4920596;29;20040;-78
2022/01/19 08:55:49;;;;;;;14.70;5.85;;;;;;;2.94;81.80;101260.16;4922286;29;20032;-78
2022/01/19 08:58:15;;;;;;;14.40;5.75;;;;;;;2.91;81.59;101246.28;4921560;29;20495;-77
2022/01/19 09:00:42;;;;;;;13.55;5.63;;;;;;;2.88;81.69;101241.22;4921051;29;20084;-78
2022/01/19 09:03:08;;;;;;;13.30;5.70;;;;;;;2.85;81.43;101230.88;4920546;29;20036;-78
2022/01/19 09:05:33;;;;;;;13.57;5.68;;;;;;;2.84;81.28;101235.34;4921818;29;20031;-78
2022/01/19 09:07:59;;;;;;;16.35;5.32;;;;;;;2.95;81.38;101226.41;4921758;29;20032;-78
2022/01/19 09:10:25;;;;;;;13.25;5.57;;;;;;;2.93;81.32;101215.03;4921915;29;20038;-79
2022/01/19 09:12:51;;;;;;;13.65;5.72;;;;;;;3.00;81.02;101218.84;4923037;29;20052;-79
2022/01/19 09:15:18;;;;;;;14.48;5.95;;;;;;;2.93;80.79;101217.72;4921536;29;20092;-77
2022/01/19 09:17:45;;;;;;;12.68;5.40;;;;;;;2.93;80.84;101221.22;4922264;29;20040;-78
2022/01/19 09:20:13;;;;;;;13.75;5.40;;;;;;;3.10;81.53;101220.56;4923596;29;20546;-78
2022/01/19 09:22:40;;;;;;;11.18;5.53;;;;;;;3.02;80.51;101220.41;4921332;29;20504;-79
2022/01/19 09:25:07;;;;;;;15.50;5.22;;;;;;;3.03;80.37;101219.44;4922601;29;20455;-78
2022/01/19 09:27:33;;;;;;;13.63;5.70;;;;;;;3.08;80.68;101209.19;4920139;29;20079;-78
2022/01/19 09:29:58;;;;;;;13.65;6.15;;;;;;;3.10;80.97;101209.91;4922404;29;20475;-78
2022/01/19 09:32:24;;;;;;;13.20;5.35;;;;;;;3.05;81.51;101201.47;4924948;29;20099;-78
2022/01/19 09:34:55;;;;;;;13.80;5.45;;;;;;;2.94;81.67;101193.63;4925701;29;20067;-78
2022/01/19 09:37:21;;;;;;;15.77;6.03;;;;;;;2.87;81.98;101181.81;4924705;29;20050;-78
2022/01/19 09:39:46;;;;;;;18.10;5.50;;;;;;;2.83;82.40;101179.59;4920345;29;20068;-77
2022/01/19 09:42:12;;;;;;;15.68;6.18;;;;;;;2.84;82.52;101175.94;4918509;29;20532;-77
2022/01/19 09:44:38;;;;;;;14.77;5.85;;;;;;;2.84;82.32;101168.81;4917743;29;20091;-77
2022/01/19 09:47:04;;;;;;;16.25;5.68;;;;;;;2.91;82.26;101171.75;4918262;29;20455;-79
2022/01/19 09:49:30;;;;;;;14.52;5.88;;;;;;;2.86;82.03;101172.19;4919595;29;20068;-77
2022/01/19 09:51:55;;;;;;;14.73;5.70;;;;;;;2.84;81.92;101168.81;4918482;29;20074;-77
2022/01/19 09:54:23;;;;;;;16.35;6.97;;;;;;;2.89;81.79;101169.22;4918438;29;20032;-79
2022/01/19 09:56:50;;;;;;;16.77;6.80;;;;;;;2.94;81.83;101167.00;4918363;29;20059;-77
2022/01/19 09:59:16;;;;;;;11.98;5.97;;;;;;;2.98;81.09;101156.91;4918842;29;20036;-77
2022/01/19 10:01:52;;;;;;;17.13;6.70;;;;;;;3.11;80.93;101160.16;4918736;29;20044;-77
2022/01/19 10:04:21;;;;;;;15.95;7.43;;;;;;;3.21;80.53;101154.84;4918778;29;20036;-77
2022/01/19 10:06:46;;;;;;;14.05;5.97;;;;;;;3.17;80.59;101150.78;4919794;29;20127;-78
2022/01/19 10:09:13;;;;;;;12.70;5.90;;;;;;;3.13;80.03;101145.72;4919309;29;20091;-77
2022/01/19 10:17:00;;;;;;;14.80;6.22;;;;;;;3.04;80.03;101130.59;4922373;29;20046;-77
2022/01/19 10:19:29;;;;;;;14.77;5.82;;;;;;;3.02;80.55;101126.38;4922305;29;20119;-78
2022/01/19 10:22:05;;;;;;;16.15;5.40;;;;;;;3.06;80.18;101123.28;4924863;29;20036;-78
2022/01/19 10:24:42;;;;;;;16.60;6.30;;;;;;;3.10;80.86;101119.38;4921587;29;20067;-78
2022/01/19 10:27:33;;;;;;;13.45;5.38;;;;;;;3.14;80.14;101110.13;4921389;29;20039;-79
2022/01/19 10:30:04;;;;;;;12.77;5.35;;;;;;;3.08;79.90;101118.66;4919764;29;20476;-78
2022/01/19 10:32:36;;;;;;;16.67;5.80;;;;;;;3.10;80.35;101113.19;4920920;29;20040;-78
2022/01/19 10:35:24;;;;;;;15.60;6.57;;;;;;;3.12;80.50;101106.75;4920277;29;20047;-78
2022/01/19 10:38:16;;;;;;;14.65;6.22;;;;;;;3.14;80.17;101115.47;4921290;29;20067;-79
2022/01/19 10:41:04;;;;;;;14.80;5.93;;;;;;;3.14;79.85;101118.13;4921341;29;20032;-79
2022/01/19 10:43:36;;;;;;;14.07;5.95;;;;;;;3.16;80.18;101117.13;4922132;29;20032;-78
2022/01/19 10:46:25;;;;;;;14.68;5.47;;;;;;;3.14;80.07;101102.13;4918680;29;20032;-76
2022/01/19 10:48:58;;;;;;;13.90;5.32;;;;;;;3.20;79.82;101106.06;4916236;29;20051;-77
2022/01/19 10:51:23;;;;;;;14.15;5.63;;;;;;;3.20;80.41;101106.06;4918420;29;20067;-77
2022/01/19 10:54:09;;;;;;;12.55;5.88;;;;;;;3.20;80.06;101095.41;4918385;29;20383;-78
2022/01/19 10:56:35;;;;;;;17.67;5.95;;;;;;;3.25;79.37;101097.63;4920597;29;20044;-77
2022/01/19 10:59:07;;;;;;;16.23;5.68;;;;;;;3.27;79.83;101088.53;4919748;29;20099;-78
2022/01/19 11:01:37;;;;;;;15.55;6.03;;;;;;;3.27;79.40;101093.00;4919720;29;20077;-76
2022/01/19 11:04:25;;;;;;;15.50;6.75;;;;;;;3.25;79.41;101085.16;4918294;29;20032;-77
2022/01/19 11:07:01;;;;;;;13.27;6.00;;;;;;;3.20;79.52;101086.59;4917562;29;20116;-77
2022/01/19 11:09:29;;;;;;;16.27;6.28;;;;;;;3.24;79.71;101075.50;4917619;29;20027;-77
2022/01/19 11:11:58;;;;;;;15.88;6.15;;;;;;;3.23;79.64;101076.47;4918390;29;20424;-78
2022/01/19 11:14:25;;;;;;;15.70;6.03;;;;;;;3.24;79.49;101071.97;4918760;29;20040;-78
2022/01/19 11:16:51;;;;;;;15.38;6.20;;;;;;;3.19;79.41;101059.13;4921555;29;20027;-79
2022/01/19 11:19:17;;;;;;;15.52;6.43;;;;;;;3.21;79.48;101057.16;4920163;29;20032;-79
2022/01/19 11:21:55;;;;;;;;;;;;;;;3.23;80.11;101054.31;4920963;29;20040;-78
2022/01/19 11:24:43;;;;;;;15.07;5.82;;;;;;;3.27;79.61;101051.25;4921093;29;19919;-79
2022/01/19 11:27:10;;;;;;;13.10;5.65;;;;;;;3.28;79.50;101050.25;4893200;29;20131;-78
2022/01/19 11:29:38;;;;;;;11.70;5.22;;;;;;;3.37;79.21;101045.91;4919391;29;20032;-76
2022/01/19 11:32:16;;;;;;;11.30;5.55;;;;;;;3.34;79.40;101031.06;4919425;29;20032;-78
2022/01/19 11:34:49;;;;;;;13.85;6.07;;;;;;;3.38;79.06;101021.81;4926207;29;20032;-78
2022/01/19 11:37:36;;;;;;;13.25;4.95;;;;;;;3.26;78.69;101009.63;4926651;29;20071;-78
2022/01/19 11:40:12;;;;;;;14.05;5.50;;;;;;;3.23;79.33;101009.06;4909265;29;20127;-77
2022/01/19 11:42:39;;;;;;;14.30;5.95;;;;;;;3.29;78.91;101000.50;4925118;29;20060;-78
2022/01/19 11:45:08;;;;;;;14.48;5.53;;;;;;;3.31;78.81;100986.06;4926019;29;20032;-78
2022/01/19 11:47:34;;;;;;;17.33;6.50;;;;;;;3.40;79.00;100993.16;4925165;29;20042;-78
2022/01/19 11:50:09;;;;;;;13.68;5.50;;;;;;;3.44;78.38;100985.72;4926725;29;20048;-79
2022/01/19 11:52:37;;;;;;;17.27;6.25;;;;;;;3.41;78.16;100984.19;4927800;29;20043;-78
2022/01/19 11:55:18;;;;;;;13.77;5.38;;;;;;;3.42;78.93;100985.88;4924812;29;20040;-78
2022/01/19 11:57:46;;;;;;;15.45;6.22;;;;;;;3.50;78.49;100990.50;4925908;29;20071;-78
2022/01/19 12:00:13;;;;;;;14.70;6.03;;;;;;;3.37;78.11;100995.31;4926839;29;20040;-78
2022/01/19 12:02:59;;;;;;;13.85;6.32;;;;;;;3.40;78.88;100984.38;4925957;29;20498;-78
2022/01/19 12:05:35;;;;;;;14.90;6.30;;;;;;;3.42;78.43;100980.53;4926522;29;20112;-78
2022/01/19 12:08:17;;;;;;;13.88;5.88;;;;;;;3.36;78.76;100967.00;4925617;29;20428;-78
2022/01/19 12:10:46;;;;;;;14.30;5.70;;;;;;;3.29;79.09;100958.72;4924894;29;20072;-79
2022/01/19 12:16:20;;;;;;;15.43;6.32;;;;;;;3.27;79.18;100938.53;4923431;29;20107;-78
2022/01/19 12:18:52;;;;;;;13.98;5.97;;;;;;;3.24;79.01;100938.84;4922513;29;20032;-78
2022/01/19 12:21:20;;;;;;;13.32;6.20;;;;;;;3.28;79.16;100945.56;4924824;29;20039;-77
2022/01/19 12:23:47;;;;;;;15.05;6.28;;;;;;;3.31;79.38;100937.28;4923268;29;20032;-77
2022/01/19 12:26:13;;;;;;;17.02;6.38;;;;;;;3.33;79.43;100930.81;4924532;29;20036;-78
2022/01/19 12:28:41;;;;;;;12.82;5.47;;;;;;;3.34;79.30;100929.00;4924786;29;20036;-78
2022/01/19 12:31:22;;;;;;;17.02;6.68;;;;;;;3.25;79.29;100927.19;4923856;29;20103;-78
2022/01/19 12:34:02;;;;;;;14.73;6.20;;;;;;;3.27;79.27;100910.09;4925160;29;20068;-79
2022/01/19 12:36:41;;;;;;;14.32;5.72;;;;;;;3.23;79.83;100908.69;4921802;29;20119;-77
2022/01/19 12:39:24;;;;;;;13.23;5.57;;;;;;;3.19;79.91;100906.50;4920077;29;20043;-77
2022/01/19 12:41:59;;;;;;;14.32;5.85;;;;;;;3.18;80.10;100907.47;4923048;29;20050;-78
2022/01/19 12:44:42;;;;;;;16.15;6.22;;;;;;;3.20;80.25;100905.50;4928449;29;20028;-78
2022/01/19 12:47:27;;;;;;;18.65;6.72;;;;;;;3.16;80.17;100907.63;4926687;29;20139;-78
2022/01/19 12:50:07;;;;;;;13.75;5.70;;;;;;;3.11;80.80;100902.72;4922730;29;20056;-78
2022/01/19 12:52:39;;;;;;;14.77;6.45;;;;;;;3.09;80.62;100901.19;4924164;29;20043;-79
2022/01/19 12:55:27;;;;;;;14.13;5.35;;;;;;;3.07;80.83;100895.16;4925202;29;20058;-78
2022/01/19 12:57:54;;;;;;;;;;;;;;;3.07;81.04;100885.34;4922184;29;20119;-78
2022/01/19 13:00:25;;;;;;;14.98;5.82;;;;;;;3.10;81.65;100874.41;4922551;29;20393;-79
2022/01/19 13:02:51;;;;;;;14.23;5.25;;;;;;;3.10;81.48;100863.75;4923002;29;20028;-78
2022/01/19 13:05:19;;;;;;;17.08;6.35;;;;;;;3.14;81.11;100869.66;4922843;29;20040;-78
2022/01/19 13:07:56;;;;;;;14.85;6.45;;;;;;;3.17;81.24;100873.84;4921874;29;20068;-77